createdAt,value
2023-02-12T00:00:10.848Z,6.20
2023-02-12T00:00:52.030Z,6.13
2023-02-12T00:01:25.063Z,6.50
2023-02-12T00:01:57.313Z,6.23
2023-02-12T00:02:32.195Z,6.40
2023-02-12T00:03:04.524Z,6.33
2023-02-12T00:03:37.187Z,6.80
2023-02-12T00:04:12.092Z,6.87
2023-02-12T00:04:44.425Z,6.63
2023-02-12T00:05:16.908Z,6.67
2023-02-12T00:05:51.735Z,6.50
2023-02-12T00:06:24.660Z,6.93
2023-02-12T00:06:59.466Z,6.37
2023-02-12T00:07:31.689Z,6.43
2023-02-12T00:08:04.199Z,6.30
2023-02-12T00:08:36.916Z,6.23
2023-02-12T00:09:11.798Z,6.17
2023-02-12T00:09:44.516Z,6.70
2023-02-12T00:10:19.690Z,6.37
2023-02-12T00:10:54.510Z,7.27
2023-02-12T00:11:28.355Z,6.90
2023-02-12T00:12:00.617Z,6.20
2023-02-12T00:12:35.436Z,6.03
2023-02-12T00:13:07.755Z,6.03
2023-02-12T00:13:40.220Z,6.13
2023-02-12T00:14:15.042Z,6.17
2023-02-12T00:14:47.443Z,6.00
2023-02-12T00:15:19.805Z,5.90
2023-02-12T00:15:52.744Z,6.50
2023-02-12T00:16:29.181Z,6.83
2023-02-12T00:17:01.443Z,7.57
2023-02-12T00:17:33.692Z,6.23
2023-02-12T00:18:08.605Z,6.30
2023-02-12T00:18:41.012Z,7.00
2023-02-12T00:19:13.264Z,7.13
2023-02-12T00:19:48.093Z,7.40
2023-02-12T00:20:20.412Z,7.00
2023-02-12T00:20:52.673Z,6.50
2023-02-12T00:21:27.822Z,6.17
2023-02-12T00:22:00.148Z,6.63
2023-02-12T00:22:32.422Z,6.87
2023-02-12T00:23:07.329Z,6.03
2023-02-12T00:23:41.227Z,5.70
2023-02-12T00:24:13.490Z,6.43
2023-02-12T00:24:48.308Z,6.80
2023-02-12T00:25:23.240Z,5.87
2023-02-12T00:25:55.845Z,6.13
2023-02-12T00:26:31.117Z,6.50
2023-02-12T00:27:03.413Z,6.50
2023-02-12T00:27:36.183Z,7.20
2023-02-12T00:28:11.453Z,6.23
2023-02-12T00:28:43.805Z,6.23
2023-02-12T00:29:16.031Z,6.83
2023-02-12T00:29:50.873Z,7.53
2023-02-12T00:30:23.197Z,6.80
2023-02-12T00:30:55.631Z,6.90
2023-02-12T00:31:32.554Z,7.13
2023-02-12T00:32:04.903Z,6.90
2023-02-12T00:32:37.450Z,6.97
2023-02-12T00:33:09.691Z,7.20
2023-02-12T00:33:44.577Z,7.57
2023-02-12T00:34:18.917Z,7.17
2023-02-12T00:34:51.137Z,7.70
2023-02-12T00:35:26.010Z,7.70
2023-02-12T00:35:58.309Z,7.67
2023-02-12T00:36:33.867Z,6.97
2023-02-12T00:37:06.109Z,6.97
2023-02-12T00:37:38.348Z,7.27
2023-02-12T00:38:13.198Z,7.00
2023-02-12T00:38:45.733Z,6.87
2023-02-12T00:39:17.980Z,7.40
2023-02-12T00:39:53.030Z,7.53
2023-02-12T00:40:27.979Z,6.80
2023-02-12T00:41:00.251Z,7.03
2023-02-12T00:41:35.083Z,7.27
2023-02-12T00:42:07.668Z,6.93
2023-02-12T00:42:39.936Z,7.53
2023-02-12T00:43:15.849Z,6.80
2023-02-12T00:43:48.880Z,7.93
2023-02-12T00:44:21.132Z,7.30
2023-02-12T00:44:55.958Z,7.50
2023-02-12T00:45:28.216Z,7.87
2023-02-12T00:46:00.480Z,7.10
2023-02-12T00:46:32.772Z,7.10
2023-02-12T00:47:08.039Z,7.53
2023-02-12T00:47:40.261Z,7.40
2023-02-12T00:48:13.749Z,7.00
2023-02-12T00:48:49.844Z,7.50
2023-02-12T00:49:25.473Z,8.30
2023-02-12T00:49:57.961Z,7.70
2023-02-12T00:50:32.953Z,7.40
2023-02-12T00:51:07.057Z,8.10
2023-02-12T00:51:39.319Z,8.23
2023-02-12T00:52:14.152Z,8.30
2023-02-12T00:52:46.388Z,8.90
2023-02-12T00:53:19.697Z,8.60
2023-02-12T00:53:54.582Z,9.10
2023-02-12T00:54:26.920Z,9.50
2023-02-12T00:54:59.635Z,8.50
2023-02-12T00:55:37.385Z,7.63
2023-02-12T00:56:09.647Z,8.40
2023-02-12T00:56:41.929Z,7.80
2023-02-12T00:57:16.765Z,7.10
2023-02-12T00:57:49.003Z,7.70
2023-02-12T00:58:21.269Z,8.00
2023-02-12T00:58:56.167Z,7.97
2023-02-12T00:59:28.931Z,6.60
2023-02-12T01:00:02.231Z,6.80
2023-02-12T01:00:34.917Z,7.50
2023-02-12T01:01:10.036Z,6.60
2023-02-12T01:01:42.367Z,7.10
2023-02-12T01:02:14.728Z,7.27
2023-02-12T01:02:49.670Z,5.70
2023-02-12T01:03:22.114Z,7.40
2023-02-12T01:03:54.437Z,7.10
2023-02-12T01:04:29.333Z,7.40
2023-02-12T01:05:01.965Z,7.40
2023-02-12T01:05:34.484Z,6.37
2023-02-12T01:06:09.913Z,7.00
2023-02-12T01:06:42.192Z,6.57
2023-02-12T01:07:15.634Z,6.97
2023-02-12T01:07:52.569Z,6.57
2023-02-12T01:08:25.042Z,6.60
2023-02-12T01:08:57.327Z,6.60
2023-02-12T01:09:32.158Z,7.10
2023-02-12T01:10:08.079Z,6.07
2023-02-12T01:10:43.824Z,6.83
2023-02-12T01:11:18.678Z,6.90
2023-02-12T01:11:50.964Z,6.93
2023-02-12T01:12:23.209Z,7.13
2023-02-12T01:12:55.868Z,7.07
2023-02-12T01:13:31.786Z,7.00
2023-02-12T01:14:06.389Z,7.33
2023-02-12T01:14:38.637Z,7.23
2023-02-12T01:15:13.656Z,6.70
2023-02-12T01:15:45.885Z,7.20
2023-02-12T01:16:20.001Z,7.57
2023-02-12T01:16:54.905Z,7.40
2023-02-12T01:17:27.354Z,6.80
2023-02-12T01:17:59.623Z,6.90
2023-02-12T01:18:34.495Z,7.73
2023-02-12T01:19:06.791Z,6.90
2023-02-12T01:19:41.674Z,6.83
2023-02-12T01:20:18.269Z,7.70
2023-02-12T01:20:50.507Z,7.17
2023-02-12T01:21:27.537Z,7.30
2023-02-12T01:22:00.322Z,7.33
2023-02-12T01:22:32.588Z,7.23
2023-02-12T01:23:08.642Z,6.73
2023-02-12T01:23:40.907Z,6.97
2023-02-12T01:24:13.166Z,7.30
2023-02-12T01:24:48.998Z,7.70
2023-02-12T01:25:21.308Z,7.60
2023-02-12T01:25:56.520Z,7.70
2023-02-12T01:26:32.567Z,6.60
2023-02-12T01:27:04.790Z,7.67
2023-02-12T01:27:37.147Z,6.97
2023-02-12T01:28:10.654Z,7.10
2023-02-12T01:28:46.867Z,7.70
2023-02-12T01:29:19.093Z,7.73
2023-02-12T01:29:51.613Z,6.53
2023-02-12T01:30:28.501Z,6.63
2023-02-12T01:31:00.897Z,7.10
2023-02-12T01:31:36.541Z,6.40
2023-02-12T01:32:11.496Z,6.77
2023-02-12T01:32:44.268Z,6.57
2023-02-12T01:33:16.760Z,6.43
2023-02-12T01:33:51.932Z,6.80
2023-02-12T01:34:24.167Z,6.13
2023-02-12T01:34:57.938Z,6.87
2023-02-12T01:35:32.751Z,6.57
2023-02-12T01:36:05.498Z,7.00
2023-02-12T01:36:37.833Z,6.30
2023-02-12T01:37:12.676Z,6.10
2023-02-12T01:37:45.354Z,6.00
2023-02-12T01:38:17.580Z,6.30
2023-02-12T01:38:53.544Z,6.43
2023-02-12T01:39:25.767Z,5.53
2023-02-12T01:39:58.004Z,6.77
2023-02-12T01:40:32.832Z,5.70
2023-02-12T01:41:10.108Z,5.70
2023-02-12T01:41:45.941Z,6.23
2023-02-12T01:42:21.541Z,6.57
2023-02-12T01:42:53.796Z,6.73
2023-02-12T01:43:26.000Z,6.63
2023-02-12T01:44:12.655Z,6.50
2023-02-12T01:44:45.688Z,6.37
2023-02-12T01:45:56.397Z,5.80
2023-02-12T01:46:28.830Z,6.57
2023-02-12T01:47:04.256Z,6.23
2023-02-12T01:47:39.143Z,6.60
2023-02-12T01:48:11.627Z,6.10
2023-02-12T01:48:46.006Z,5.70
2023-02-12T01:49:23.859Z,6.03
2023-02-12T01:49:56.100Z,6.70
2023-02-12T01:50:28.634Z,6.80
2023-02-12T01:51:02.722Z,6.17
2023-02-12T01:51:38.573Z,6.17
2023-02-12T01:52:15.565Z,6.30
2023-02-12T01:52:49.936Z,7.37
2023-02-12T01:53:25.332Z,6.70
2023-02-12T01:54:01.536Z,6.13
2023-02-12T01:54:37.508Z,6.33
2023-02-12T01:55:10.717Z,6.67
2023-02-12T01:55:43.219Z,6.07
2023-02-12T01:56:21.007Z,5.70
2023-02-12T01:56:53.697Z,6.50
2023-02-12T01:57:27.468Z,6.57
2023-02-12T01:57:59.701Z,6.53
2023-02-12T01:58:39.008Z,6.67
2023-02-12T01:59:12.147Z,5.83
2023-02-12T01:59:46.361Z,6.50
2023-02-12T02:00:24.800Z,5.83
2023-02-12T02:00:57.788Z,5.63
2023-02-12T02:01:31.679Z,6.40
2023-02-12T02:02:08.466Z,6.10
2023-02-12T02:02:40.886Z,6.47
2023-02-12T02:03:13.246Z,6.50
2023-02-12T02:03:46.416Z,6.63
2023-02-12T02:04:25.027Z,6.10
2023-02-12T02:05:00.226Z,6.70
2023-02-12T02:05:41.684Z,6.70
2023-02-12T02:06:19.583Z,6.83
2023-02-12T02:06:56.869Z,6.97
2023-02-12T02:07:29.164Z,6.93
2023-02-12T02:08:02.870Z,6.80
2023-02-12T02:08:37.700Z,6.70
2023-02-12T02:09:09.988Z,6.30
2023-02-12T02:09:42.819Z,7.13
2023-02-12T02:10:17.774Z,7.53
2023-02-12T02:10:50.067Z,7.17
2023-02-12T02:11:39.894Z,6.40
2023-02-12T02:12:27.167Z,6.70
2023-02-12T02:13:18.497Z,6.50
2023-02-12T02:14:05.831Z,7.00
2023-02-12T02:14:39.280Z,6.90
2023-02-12T02:15:14.356Z,6.32
2023-02-12T02:15:48.768Z,6.40
2023-02-12T02:16:24.697Z,6.17
2023-02-12T02:17:26.406Z,6.40
2023-02-12T02:18:01.833Z,6.50
2023-02-12T02:18:38.417Z,7.20
2023-02-12T02:19:25.818Z,6.60
2023-02-12T02:20:17.520Z,5.03
2023-02-12T02:21:16.313Z,6.50
2023-02-12T02:22:16.236Z,6.30
2023-02-12T02:22:54.833Z,6.87
2023-02-12T02:23:57.028Z,5.90
2023-02-12T02:24:51.136Z,6.33
2023-02-12T02:25:58.074Z,6.40
2023-02-12T02:26:57.385Z,6.03
2023-02-12T02:27:38.386Z,6.07
2023-02-12T02:28:30.852Z,6.40
2023-02-12T02:29:31.882Z,6.20
2023-02-12T02:30:37.551Z,6.30
2023-02-12T02:31:15.108Z,6.30
2023-02-12T02:31:48.364Z,6.20
2023-02-12T02:32:26.883Z,7.10
2023-02-12T02:33:07.948Z,6.23
2023-02-12T02:33:48.912Z,6.60
2023-02-12T02:34:26.295Z,6.70
2023-02-12T02:35:01.510Z,6.60
2023-02-12T02:35:42.089Z,6.90
2023-02-12T02:36:26.283Z,7.67
2023-02-12T02:37:07.462Z,6.30
2023-02-12T02:37:41.307Z,6.53
2023-02-12T02:38:21.841Z,6.40
2023-02-12T02:38:59.200Z,6.63
2023-02-12T02:39:38.850Z,6.27
2023-02-12T02:40:13.884Z,6.20
2023-02-12T02:40:53.385Z,5.93
2023-02-12T02:41:29.563Z,6.47
2023-02-12T02:42:08.725Z,6.23
2023-02-12T02:42:47.006Z,6.07
2023-02-12T02:43:22.906Z,6.70
2023-02-12T02:43:56.008Z,6.10
2023-02-12T02:44:35.475Z,6.60
2023-02-12T02:45:12.378Z,6.43
2023-02-12T02:45:49.415Z,6.37
2023-02-12T02:46:29.380Z,6.90
2023-02-12T02:47:02.637Z,6.63
2023-02-12T02:47:40.548Z,6.50
2023-02-12T02:48:18.730Z,6.90
2023-02-12T02:48:53.252Z,7.33
2023-02-12T02:49:30.474Z,7.23
2023-02-12T02:50:05.885Z,7.13
2023-02-12T02:50:41.339Z,7.80
2023-02-12T02:51:21.443Z,7.33
2023-02-12T02:51:56.584Z,7.00
2023-02-12T02:52:32.364Z,6.80
2023-02-12T02:53:10.094Z,7.10
2023-02-12T02:53:44.740Z,6.83
2023-02-12T02:54:20.213Z,7.97
2023-02-12T02:54:58.831Z,7.23
2023-02-12T02:55:35.880Z,6.60
2023-02-12T02:56:09.580Z,7.40
2023-02-12T02:56:47.258Z,7.23
2023-02-12T02:57:22.989Z,6.70
2023-02-12T02:57:57.874Z,7.20
2023-02-12T02:58:35.947Z,7.60
2023-02-12T02:59:11.899Z,6.87
2023-02-12T02:59:47.419Z,6.23
2023-02-12T03:00:24.563Z,6.90
2023-02-12T03:01:02.713Z,6.90
2023-02-12T03:01:38.641Z,7.30
2023-02-12T03:02:17.492Z,7.73
2023-02-12T03:02:52.980Z,6.97
2023-02-12T03:03:27.896Z,7.50
2023-02-12T03:04:04.246Z,7.30
2023-02-12T03:04:43.224Z,7.63
2023-02-12T03:05:19.535Z,7.10
2023-02-12T03:05:55.070Z,7.90
2023-02-12T03:06:32.652Z,7.30
2023-02-12T03:07:08.636Z,7.47
2023-02-12T03:07:42.947Z,7.43
2023-02-12T03:08:20.291Z,7.53
2023-02-12T03:08:58.464Z,7.07
2023-02-12T03:09:36.558Z,7.50
2023-02-12T03:10:13.053Z,7.57
2023-02-12T03:10:50.370Z,7.10
2023-02-12T03:11:26.261Z,6.80
2023-02-12T03:12:01.801Z,7.20
2023-02-12T03:12:42.309Z,7.20
2023-02-12T03:13:19.033Z,7.30
2023-02-12T03:13:55.243Z,7.00
2023-02-12T03:14:32.691Z,7.97
2023-02-12T03:15:09.304Z,7.30
2023-02-12T03:15:45.056Z,7.40
2023-02-12T03:16:26.463Z,7.73
2023-02-12T03:17:00.676Z,7.70
2023-02-12T03:17:36.310Z,7.70
2023-02-12T03:18:14.423Z,7.43
2023-02-12T03:18:50.633Z,7.53
2023-02-12T03:19:25.152Z,8.07
2023-02-12T03:20:03.372Z,7.53
2023-02-12T03:20:38.456Z,7.90
2023-02-12T03:21:14.529Z,7.63
2023-02-12T03:21:50.562Z,7.00
2023-02-12T03:22:28.488Z,7.70
2023-02-12T03:23:04.308Z,7.27
2023-02-12T03:23:41.129Z,7.00
2023-02-12T03:24:17.425Z,6.67
2023-02-12T03:24:56.336Z,7.40
2023-02-12T03:25:33.598Z,7.87
2023-02-12T03:26:10.224Z,7.27
2023-02-12T03:26:52.833Z,7.83
2023-02-12T03:27:29.366Z,7.47
2023-02-12T03:28:05.396Z,7.37
2023-02-12T03:28:41.616Z,7.70
2023-02-12T03:29:14.126Z,7.37
2023-02-12T03:29:46.887Z,7.70
2023-02-12T03:30:23.002Z,7.23
2023-02-12T03:31:00.751Z,7.23
2023-02-12T03:31:42.996Z,7.93
2023-02-12T03:32:29.606Z,7.30
2023-02-12T03:33:07.078Z,7.97
2023-02-12T03:33:45.106Z,7.10
2023-02-12T03:34:28.654Z,6.37
2023-02-12T03:35:10.406Z,7.60
2023-02-12T03:35:49.284Z,7.30
2023-02-12T03:36:31.293Z,7.10
2023-02-12T03:37:06.360Z,7.40
2023-02-12T03:37:41.897Z,7.27
2023-02-12T03:38:22.194Z,7.70
2023-02-12T03:38:58.973Z,6.83
2023-02-12T03:39:37.322Z,6.70
2023-02-12T03:40:16.359Z,7.10
2023-02-12T03:40:56.201Z,6.60
2023-02-12T03:41:32.216Z,6.67
2023-02-12T03:42:09.439Z,6.50
2023-02-12T03:42:55.515Z,6.80
2023-02-12T03:43:30.787Z,6.70
2023-02-12T03:44:11.059Z,7.43
2023-02-12T03:44:52.865Z,6.63
2023-02-12T03:45:35.333Z,6.60
2023-02-12T03:46:14.635Z,6.93
2023-02-12T03:47:01.066Z,6.90
2023-02-12T03:47:39.972Z,6.70
2023-02-12T03:48:14.624Z,6.70
2023-02-12T03:48:59.634Z,6.67
2023-02-12T03:49:35.012Z,6.60
2023-02-12T03:50:11.843Z,7.23
2023-02-12T03:50:49.579Z,6.90
2023-02-12T03:51:25.141Z,7.10
2023-02-12T03:51:58.442Z,7.00
2023-02-12T03:52:33.538Z,7.30
2023-02-12T03:53:06.106Z,6.30
2023-02-12T03:53:38.407Z,7.00
2023-02-12T03:54:15.837Z,6.40
2023-02-12T03:54:48.244Z,7.03
2023-02-12T03:55:20.589Z,6.90
2023-02-12T03:55:59.508Z,7.10
2023-02-12T03:56:37.451Z,6.97
2023-02-12T03:57:11.635Z,6.70
2023-02-12T03:57:48.656Z,7.47
2023-02-12T03:58:23.344Z,7.67
2023-02-12T03:58:55.590Z,7.70
2023-02-12T03:59:30.616Z,7.50
2023-02-12T04:00:05.430Z,7.20
2023-02-12T04:00:46.692Z,6.57
2023-02-12T04:01:21.670Z,7.53
2023-02-12T04:01:59.158Z,6.93
2023-02-12T04:02:31.427Z,7.77
2023-02-12T04:03:07.444Z,7.20
2023-02-12T04:03:39.980Z,6.60
2023-02-12T04:04:12.370Z,7.63
2023-02-12T04:04:47.667Z,7.37
2023-02-12T04:05:21.759Z,7.30
2023-02-12T04:05:54.336Z,6.30
2023-02-12T04:06:30.766Z,7.50
2023-02-12T04:07:03.153Z,6.63
2023-02-12T04:07:38.788Z,6.67
2023-02-12T04:08:12.823Z,7.30
2023-02-12T04:08:45.091Z,7.03
2023-02-12T04:09:20.978Z,7.00
2023-02-12T04:09:53.228Z,6.80
2023-02-12T04:10:36.011Z,7.80
2023-02-12T04:11:14.126Z,7.53
2023-02-12T04:11:54.829Z,6.90
2023-02-12T04:12:37.343Z,7.00
2023-02-12T04:13:17.445Z,7.13
2023-02-12T04:14:01.048Z,7.30
2023-02-12T04:14:38.364Z,7.25
2023-02-12T04:15:22.087Z,7.80
2023-02-12T04:16:17.458Z,7.77
2023-02-12T04:16:52.773Z,8.17
2023-02-12T04:17:33.653Z,7.30
2023-02-12T04:18:13.337Z,7.63
2023-02-12T04:18:49.532Z,7.13
2023-02-12T04:19:28.329Z,7.27
2023-02-12T04:20:11.059Z,7.87
2023-02-12T04:20:50.636Z,6.63
2023-02-12T04:21:40.880Z,7.10
2023-02-12T04:22:22.717Z,7.37
2023-02-12T04:23:04.700Z,6.73
2023-02-12T04:23:47.065Z,6.87
2023-02-12T04:24:28.248Z,7.37
2023-02-12T04:25:07.555Z,7.10
2023-02-12T04:25:50.726Z,7.60
2023-02-12T04:26:27.709Z,8.10
2023-02-12T04:27:04.008Z,7.47
2023-02-12T04:27:39.184Z,6.93
2023-02-12T04:28:18.932Z,7.20
2023-02-12T04:28:58.602Z,7.27
2023-02-12T04:29:38.216Z,6.90
2023-02-12T04:30:14.806Z,7.10
2023-02-12T04:30:53.058Z,7.50
2023-02-12T04:31:32.691Z,6.70
2023-02-12T04:32:09.764Z,7.60
2023-02-12T04:32:48.118Z,7.80
2023-02-12T04:33:25.004Z,7.93
2023-02-12T04:34:03.315Z,7.90
2023-02-12T04:34:43.355Z,7.50
2023-02-12T04:35:21.424Z,7.30
2023-02-12T04:35:59.012Z,7.60
2023-02-12T04:36:37.273Z,7.67
2023-02-12T04:37:15.894Z,7.57
2023-02-12T04:37:51.530Z,6.80
2023-02-12T04:38:29.896Z,6.80
2023-02-12T04:39:04.457Z,6.93
2023-02-12T04:39:38.703Z,7.23
2023-02-12T04:40:16.424Z,8.20
2023-02-12T04:40:49.736Z,6.40
2023-02-12T04:41:22.031Z,6.80
2023-02-12T04:41:56.872Z,7.03
2023-02-12T04:42:29.136Z,6.63
2023-02-12T04:43:01.552Z,7.30
2023-02-12T04:43:38.390Z,7.60
2023-02-12T04:44:20.149Z,7.07
2023-02-12T04:44:53.399Z,7.23
2023-02-12T04:45:30.238Z,6.40
2023-02-12T04:46:02.806Z,6.87
2023-02-12T04:46:35.035Z,7.27
2023-02-12T04:47:10.055Z,7.40
2023-02-12T04:47:44.887Z,7.43
2023-02-12T04:48:17.105Z,7.07
2023-02-12T04:48:55.611Z,6.93
2023-02-12T04:49:28.116Z,6.60
2023-02-12T04:50:00.385Z,6.60
2023-02-12T04:50:42.603Z,6.57
2023-02-12T04:51:14.895Z,6.80
2023-02-12T04:51:50.171Z,6.73
2023-02-12T04:52:22.392Z,6.90
2023-02-12T04:52:54.892Z,6.70
2023-02-12T04:53:29.836Z,7.07
2023-02-12T04:54:02.065Z,6.83
2023-02-12T04:54:34.435Z,7.17
2023-02-12T04:55:09.934Z,6.80
2023-02-12T04:55:42.254Z,7.67
2023-02-12T04:56:14.669Z,7.23
2023-02-12T04:56:49.935Z,7.50
2023-02-12T04:57:22.180Z,7.30
2023-02-12T04:57:54.429Z,7.70
2023-02-12T04:58:29.234Z,7.63
2023-02-12T04:59:01.468Z,7.83
2023-02-12T04:59:33.695Z,7.53
2023-02-12T05:00:07.465Z,7.30
2023-02-12T05:00:42.442Z,7.17
2023-02-12T05:01:14.754Z,7.10
2023-02-12T05:01:47.360Z,7.17
2023-02-12T05:02:22.231Z,7.93
2023-02-12T05:02:57.060Z,6.60
2023-02-12T05:03:29.308Z,7.80
2023-02-12T05:04:04.924Z,7.40
2023-02-12T05:04:37.293Z,6.93
2023-02-12T05:05:09.665Z,10.97
2023-02-12T05:05:44.525Z,13.83
2023-02-12T05:06:16.773Z,14.10
2023-02-12T05:06:49.017Z,12.93
2023-02-12T05:07:23.884Z,11.43
2023-02-12T05:07:56.125Z,9.60
2023-02-12T05:08:28.335Z,10.63
2023-02-12T05:09:03.182Z,9.93
2023-02-12T05:09:35.410Z,14.10
2023-02-12T05:10:09.331Z,12.93
2023-02-12T05:10:44.143Z,19.03
2023-02-12T05:11:16.358Z,21.03
2023-02-12T05:11:48.922Z,23.23
2023-02-12T05:12:23.767Z,18.73
2023-02-12T05:12:56.441Z,14.70
2023-02-12T05:13:28.652Z,19.70
2023-02-12T05:14:01.067Z,17.80
2023-02-12T05:14:35.925Z,16.43
2023-02-12T05:15:09.430Z,19.03
2023-02-12T05:15:41.734Z,21.80
2023-02-12T05:16:16.612Z,24.57
2023-02-12T05:16:48.970Z,18.10
2023-02-12T05:17:22.536Z,12.90
2023-02-12T05:17:59.951Z,7.50
2023-02-12T05:18:32.688Z,8.30
2023-02-12T05:19:04.944Z,8.67
2023-02-12T05:19:39.778Z,8.90
2023-02-12T05:20:13.015Z,9.07
2023-02-12T05:20:45.285Z,11.27
2023-02-12T05:21:20.403Z,12.30
2023-02-12T05:21:52.752Z,11.80
2023-02-12T05:22:24.972Z,12.90
2023-02-12T05:22:59.819Z,12.80
2023-02-12T05:23:33.657Z,11.07
2023-02-12T05:24:06.735Z,9.83
2023-02-12T05:24:41.599Z,9.33
2023-02-12T05:25:13.847Z,9.80
2023-02-12T05:25:46.101Z,10.40
2023-02-12T05:26:20.583Z,17.37
2023-02-12T05:26:55.732Z,14.40
2023-02-12T05:27:27.968Z,16.70
2023-02-12T05:28:00.436Z,20.93
2023-02-12T05:28:35.400Z,19.90
2023-02-12T05:29:07.635Z,18.13
2023-02-12T05:29:40.093Z,17.70
2023-02-12T05:30:15.902Z,16.07
2023-02-12T05:30:48.188Z,14.13
2023-02-12T05:31:21.820Z,15.10
2023-02-12T05:31:56.856Z,14.50
2023-02-12T05:32:29.154Z,14.10
2023-02-12T05:33:04.068Z,13.07
2023-02-12T05:33:39.428Z,13.27
2023-02-12T05:34:12.618Z,11.47
2023-02-12T05:34:44.837Z,10.20
2023-02-12T05:35:19.777Z,8.30
2023-02-12T05:35:52.785Z,8.70
2023-02-12T05:36:25.331Z,7.23
2023-02-12T05:37:00.141Z,7.03
2023-02-12T05:37:35.020Z,8.00
2023-02-12T05:38:07.293Z,6.97
2023-02-12T05:38:39.613Z,6.90
2023-02-12T05:39:14.474Z,7.13
2023-02-12T05:39:49.467Z,7.13
2023-02-12T05:40:21.774Z,7.13
2023-02-12T05:40:56.600Z,7.60
2023-02-12T05:41:29.363Z,7.17
2023-02-12T05:42:04.196Z,6.70
2023-02-12T05:42:36.465Z,7.13
2023-02-12T05:43:08.765Z,6.70
2023-02-12T05:43:43.706Z,6.50
2023-02-12T05:44:16.447Z,6.80
2023-02-12T05:44:48.672Z,6.13
2023-02-12T05:45:27.890Z,6.37
2023-02-12T05:46:00.439Z,6.40
2023-02-12T05:46:33.019Z,7.13
2023-02-12T05:47:07.935Z,6.73
2023-02-12T05:47:40.162Z,6.70
2023-02-12T05:48:15.390Z,6.77
2023-02-12T05:48:50.636Z,7.10
2023-02-12T05:49:22.875Z,6.00
2023-02-12T05:49:55.108Z,6.83
2023-02-12T05:50:29.963Z,6.90
2023-02-12T05:51:06.645Z,7.40
2023-02-12T05:51:39.185Z,7.50
2023-02-12T05:52:13.995Z,6.80
2023-02-12T05:52:46.223Z,6.90
2023-02-12T05:53:18.440Z,6.70
2023-02-12T05:53:55.012Z,7.40
2023-02-12T05:54:27.256Z,7.10
2023-02-12T05:54:59.475Z,7.10
2023-02-12T05:55:34.328Z,6.83
2023-02-12T05:56:09.707Z,6.63
2023-02-12T05:56:45.472Z,7.00
2023-02-12T05:57:20.324Z,7.00
2023-02-12T05:57:52.550Z,7.17
2023-02-12T05:58:24.861Z,7.33
2023-02-12T05:59:02.415Z,6.93
2023-02-12T05:59:34.869Z,6.93
2023-02-12T06:00:12.446Z,7.30
2023-02-12T06:00:44.657Z,7.97
2023-02-12T06:01:18.651Z,6.80
2023-02-12T06:01:54.686Z,7.00
2023-02-12T06:02:26.971Z,6.77
2023-02-12T06:02:59.289Z,7.13
2023-02-12T06:03:34.361Z,6.50
2023-02-12T06:04:14.689Z,7.93
2023-02-12T06:04:48.599Z,7.30
2023-02-12T06:05:21.060Z,7.63
2023-02-12T06:05:56.262Z,7.20
2023-02-12T06:06:29.407Z,7.07
2023-02-12T06:07:04.315Z,7.40
2023-02-12T06:07:36.559Z,6.87
2023-02-12T06:08:08.841Z,7.10
2023-02-12T06:08:41.305Z,7.57
2023-02-12T06:09:17.175Z,7.20
2023-02-12T06:09:49.432Z,7.37
2023-02-12T06:10:21.836Z,6.90
2023-02-12T06:10:54.076Z,6.90
2023-02-12T06:11:29.046Z,7.50
2023-02-12T06:12:01.404Z,7.57
2023-02-12T06:12:33.643Z,7.63
2023-02-12T06:13:08.485Z,8.40
2023-02-12T06:13:40.829Z,8.20
2023-02-12T06:14:14.898Z,7.30
2023-02-12T06:14:49.840Z,6.93
2023-02-12T06:15:22.069Z,7.90
2023-02-12T06:15:54.713Z,7.10
2023-02-12T06:16:31.019Z,7.30
2023-02-12T06:17:03.288Z,7.30
2023-02-12T06:17:35.642Z,7.10
2023-02-12T06:18:10.453Z,8.10
2023-02-12T06:18:45.331Z,7.70
2023-02-12T06:19:20.771Z,7.27
2023-02-12T06:19:53.013Z,7.93
2023-02-12T06:20:25.313Z,7.63
2023-02-12T06:21:00.325Z,7.10
2023-02-12T06:21:33.187Z,8.00
2023-02-12T06:22:05.475Z,7.20
2023-02-12T06:22:43.153Z,8.37
2023-02-12T06:23:15.451Z,7.30
2023-02-12T06:23:48.036Z,7.63
2023-02-12T06:24:22.977Z,7.50
2023-02-12T06:24:55.203Z,7.73
2023-02-12T06:25:27.440Z,7.20
2023-02-12T06:26:00.068Z,7.67
2023-02-12T06:26:34.961Z,7.80
2023-02-12T06:27:07.216Z,7.50
2023-02-12T06:27:39.451Z,7.37
2023-02-12T06:28:11.724Z,7.87
2023-02-12T06:28:46.866Z,8.30
2023-02-12T06:29:19.464Z,7.40
2023-02-12T06:29:54.270Z,8.15
2023-02-12T06:30:26.530Z,7.90
2023-02-12T06:30:59.021Z,7.33
2023-02-12T06:31:35.507Z,7.50
2023-02-12T06:32:08.705Z,7.17
2023-02-12T06:32:41.126Z,7.87
2023-02-12T06:33:15.963Z,8.17
2023-02-12T06:33:51.187Z,7.40
2023-02-12T06:34:23.401Z,8.20
2023-02-12T06:34:58.283Z,8.20
2023-02-12T06:35:30.511Z,7.70
2023-02-12T06:36:04.647Z,7.13
2023-02-12T06:36:40.645Z,7.23
2023-02-12T06:37:13.013Z,7.37
2023-02-12T06:37:45.298Z,6.70
2023-02-12T06:38:20.173Z,8.07
2023-02-12T06:38:52.664Z,7.33
2023-02-12T06:39:24.948Z,7.00
2023-02-12T06:39:59.761Z,7.80
2023-02-12T06:40:32.133Z,8.00
2023-02-12T06:41:05.126Z,7.90
2023-02-12T06:41:39.992Z,8.87
2023-02-12T06:42:12.199Z,7.57
2023-02-12T06:42:44.453Z,8.70
2023-02-12T06:43:19.340Z,9.67
2023-02-12T06:43:51.692Z,8.33
2023-02-12T06:44:24.125Z,8.70
2023-02-12T06:44:58.933Z,8.33
2023-02-12T06:45:31.237Z,8.03
2023-02-12T06:46:04.477Z,8.47
2023-02-12T06:46:39.401Z,7.50
2023-02-12T06:47:11.760Z,7.70
2023-02-12T06:47:46.680Z,8.10
2023-02-12T06:48:18.918Z,8.13
2023-02-12T06:48:56.674Z,7.20
2023-02-12T06:49:31.529Z,8.57
2023-02-12T06:50:04.385Z,7.80
2023-02-12T06:50:36.636Z,8.17
2023-02-12T06:51:13.285Z,7.67
2023-02-12T06:51:45.555Z,7.83
2023-02-12T06:52:17.803Z,7.60
2023-02-12T06:52:52.658Z,8.10
2023-02-12T06:53:24.879Z,7.60
2023-02-12T06:53:57.190Z,7.93
2023-02-12T06:54:32.028Z,7.17
2023-02-12T06:55:04.392Z,8.20
2023-02-12T06:55:36.639Z,7.60
2023-02-12T06:56:13.396Z,7.67
2023-02-12T06:56:45.909Z,8.03
2023-02-12T06:57:18.172Z,8.17
2023-02-12T06:57:53.000Z,7.50
2023-02-12T06:58:25.340Z,7.93
2023-02-12T06:59:01.510Z,7.90
2023-02-12T06:59:33.752Z,7.67
2023-02-12T07:00:07.617Z,7.47
2023-02-12T07:00:42.476Z,6.97
2023-02-12T07:01:17.944Z,7.90
2023-02-12T07:01:52.832Z,8.10
2023-02-12T07:02:25.102Z,8.10
2023-02-12T07:02:57.369Z,7.50
2023-02-12T07:03:32.465Z,8.20
2023-02-12T07:04:07.382Z,7.33
2023-02-12T07:04:39.794Z,7.82
2023-02-12T07:05:14.660Z,7.93
2023-02-12T07:05:48.351Z,7.70
2023-02-12T07:06:21.968Z,8.23
2023-02-12T07:06:56.787Z,8.40
2023-02-12T07:07:29.125Z,8.43
2023-02-12T07:08:01.353Z,8.30
2023-02-12T07:08:36.196Z,8.13
2023-02-12T07:09:08.441Z,8.60
2023-02-12T07:09:40.728Z,8.03
2023-02-12T07:10:15.564Z,7.88
2023-02-12T07:10:50.504Z,8.57
2023-02-12T07:11:24.447Z,8.20
2023-02-12T07:12:01.284Z,8.90
2023-02-12T07:12:34.048Z,8.20
2023-02-12T07:13:06.356Z,8.67
2023-02-12T07:13:41.179Z,7.63
2023-02-12T07:14:14.764Z,8.00
2023-02-12T07:14:49.619Z,7.77
2023-02-12T07:15:21.833Z,8.27
2023-02-12T07:15:54.359Z,7.97
2023-02-12T07:16:30.411Z,8.43
2023-02-12T07:17:03.999Z,8.80
2023-02-12T07:17:36.296Z,8.40
2023-02-12T07:18:11.159Z,8.10
2023-02-12T07:18:43.833Z,8.90
2023-02-12T07:19:21.276Z,8.10
2023-02-12T07:19:53.531Z,8.50
2023-02-12T07:20:25.764Z,8.32
2023-02-12T07:21:00.596Z,8.00
2023-02-12T07:21:33.168Z,8.20
2023-02-12T07:22:08.073Z,8.60
2023-02-12T07:22:40.312Z,7.97
2023-02-12T07:23:12.588Z,8.50
2023-02-12T07:23:51.434Z,7.97
2023-02-12T07:24:23.831Z,8.57
2023-02-12T07:24:56.087Z,8.27
2023-02-12T07:25:30.946Z,9.13
2023-02-12T07:26:05.846Z,9.53
2023-02-12T07:26:41.172Z,8.63
2023-02-12T07:27:13.411Z,7.97
2023-02-12T07:27:45.625Z,8.50
2023-02-12T07:28:20.466Z,8.13
2023-02-12T07:28:52.806Z,8.60
2023-02-12T07:29:27.674Z,8.20
2023-02-12T07:29:59.912Z,8.50
2023-02-12T07:30:32.177Z,7.80
2023-02-12T07:31:10.924Z,8.67
2023-02-12T07:31:43.657Z,8.27
2023-02-12T07:32:15.957Z,8.70
2023-02-12T07:32:50.794Z,9.60
2023-02-12T07:33:23.012Z,9.97
2023-02-12T07:33:55.930Z,9.90
2023-02-12T07:34:33.558Z,10.00
2023-02-12T07:35:06.553Z,9.80
2023-02-12T07:35:38.775Z,10.13
2023-02-12T07:36:16.048Z,11.30
2023-02-12T07:36:48.258Z,11.70
2023-02-12T07:37:22.829Z,12.70
2023-02-12T07:37:57.680Z,13.17
2023-02-12T07:38:30.060Z,11.80
2023-02-12T07:39:02.428Z,12.13
2023-02-12T07:39:37.246Z,10.87
2023-02-12T07:40:10.444Z,11.13
2023-02-12T07:40:42.717Z,11.03
2023-02-12T07:41:18.998Z,10.33
2023-02-12T07:41:51.266Z,10.50
2023-02-12T07:42:23.486Z,10.93
2023-02-12T07:42:58.713Z,11.20
2023-02-12T07:43:30.939Z,11.30
2023-02-12T07:44:07.529Z,10.40
2023-02-12T07:44:42.380Z,10.53
2023-02-12T07:45:14.880Z,10.80
2023-02-12T07:45:47.169Z,10.40
2023-02-12T07:46:26.453Z,10.83
2023-02-12T07:46:58.702Z,9.90
2023-02-12T07:47:35.822Z,10.50
2023-02-12T07:48:08.036Z,10.03
2023-02-12T07:48:40.597Z,9.97